Time;durP1;ratioP1;P1;durP2;ratioP2;P2;SDS_P1;SDS_P2;PMS_P1;PMS_P2;Temp;Humidity;BMP_temperature;BMP_pressure;BME280_temperature;BME280_humidity;BME280_pressure;Samples;Min_cycle;Max_cycle;Signal;HPM_P1;HPM_P2
2022/06/08 00:03:14;;;;;;;14.75;9.13;;;;;;;9.07;100.00;101027.03;10275720;28;20062;-93
2022/06/08 00:08:14;;;;;;;12.32;7.57;;;;;;;8.98;100.00;101022.97;10286923;28;20038;-92
2022/06/08 00:13:14;;;;;;;13.02;7.78;;;;;;;8.93;100.00;101013.78;10306739;28;20489;-91
2022/06/08 00:18:15;;;;;;;13.25;8.68;;;;;;;8.95;100.00;101012.47;10306177;28;20038;-92
2022/06/08 00:23:15;;;;;;;14.02;8.55;;;;;;;8.93;100.00;101000.03;10306079;28;20031;-91
2022/06/08 00:28:16;;;;;;;15.98;8.85;;;;;;;8.92;100.00;100990.16;10289684;28;20068;-92
2022/06/08 00:33:16;;;;;;;18.50;9.00;;;;;;;8.87;100.00;100993.63;10307640;28;20078;-91
2022/06/08 00:38:17;;;;;;;15.32;9.48;;;;;;;8.80;100.00;100998.38;10305288;28;20042;-92
2022/06/08 00:43:17;;;;;;;15.10;8.45;;;;;;;8.66;100.00;100976.69;10305046;28;20058;-91
2022/06/08 00:48:18;;;;;;;12.00;8.45;;;;;;;8.69;100.00;100981.69;10303700;28;20078;-89
2022/06/08 00:53:22;;;;;;;14.93;8.70;;;;;;;8.74;100.00;100982.88;10288340;28;20050;-92
2022/06/08 00:58:25;;;;;;;16.50;8.15;;;;;;;8.73;100.00;100975.72;10291089;28;20039;-92
2022/06/08 01:03:26;;;;;;;15.70;9.32;;;;;;;8.71;100.00;100970.47;10298955;28;20094;-90
2022/06/08 01:08:32;;;;;;;13.55;8.77;;;;;;;8.74;100.00;100982.88;10285375;28;20066;-90
2022/06/08 01:13:33;;;;;;;18.23;10.37;;;;;;;8.71;100.00;100972.38;10280247;28;20046;-93
2022/06/08 01:18:34;;;;;;;14.95;9.98;;;;;;;8.71;100.00;100962.22;10262402;28;20062;-91
2022/06/08 01:23:34;;;;;;;19.10;10.93;;;;;;;8.67;100.00;100948.16;10304418;28;20070;-91
2022/06/08 01:28:53;;;;;;;20.67;10.20;;;;;;;8.62;100.00;100948.03;10274919;28;20046;-92
2022/06/08 01:34:11;;;;;;;18.17;11.40;;;;;;;8.60;100.00;100944.72;10304214;28;20042;-91
2022/06/08 01:39:47;;;;;;;16.55;10.15;;;;;;;8.48;100.00;100919.19;10312489;28;20043;-92
2022/06/08 01:50:44;;;;;;;;;;;;;;;8.52;100.00;100942.31;10289816;28;20043;-91
2022/06/08 01:55:49;;;;;;;16.83;10.15;;;;;;;8.55;100.00;100935.50;10297907;28;19964;-93
2022/06/08 02:00:59;;;;;;;18.92;10.13;;;;;;;8.47;100.00;100923.84;10301076;28;20043;-91
2022/06/08 02:06:37;;;;;;;18.55;9.88;;;;;;;8.51;100.00;100924.19;10262938;28;20039;-93
2022/06/08 02:11:44;;;;;;;18.42;10.07;;;;;;;8.44;100.00;100915.25;10283024;28;20039;-92
2022/06/08 02:16:50;;;;;;;20.60;10.70;;;;;;;8.43;100.00;100910.81;10286482;28;20126;-92
2022/06/08 02:22:03;;;;;;;16.10;11.02;;;;;;;8.33;100.00;100894.09;10301323;28;20078;-91
2022/06/08 02:27:11;;;;;;;23.60;11.77;;;;;;;8.39;100.00;100898.63;10285166;28;20094;-92
2022/06/08 02:37:34;;;;;;;18.42;9.88;;;;;;;8.34;100.00;100891.13;10288184;28;20049;-91
2022/06/08 02:42:40;;;;;;;19.13;11.73;;;;;;;8.38;100.00;100891.47;10301835;28;20050;-93
2022/06/08 02:47:41;;;;;;;20.90;12.47;;;;;;;8.36;100.00;100877.16;10249308;28;20071;-91
2022/06/08 02:52:45;;;;;;;19.92;12.43;;;;;;;8.38;100.00;100886.00;10247940;28;20271;-93
2022/06/08 02:57:55;;;;;;;19.95;12.77;;;;;;;8.31;100.00;100864.19;10245397;28;20086;-92
2022/06/08 03:03:00;;;;;;;25.15;13.93;;;;;;;8.41;100.00;100874.56;10267681;28;20077;-90
2022/06/08 03:08:08;;;;;;;26.98;14.10;;;;;;;8.44;100.00;100863.13;10288256;28;20034;-93
2022/06/08 03:13:15;;;;;;;27.63;14.70;;;;;;;8.48;100.00;100856.91;10290749;28;20047;-90
2022/06/08 03:18:15;;;;;;;26.85;14.32;;;;;;;8.57;100.00;100860.09;10291073;28;20031;-91
2022/06/08 03:23:17;;;;;;;32.00;15.25;;;;;;;8.60;100.00;100850.53;10303663;28;20090;-90
2022/06/08 03:28:18;;;;;;;23.75;14.25;;;;;;;8.56;100.00;100839.25;10278672;28;20043;-92
2022/06/08 03:33:18;;;;;;;26.42;15.50;;;;;;;8.63;100.00;100834.44;10284828;28;20039;-93
2022/06/08 03:38:19;;;;;;;26.77;15.25;;;;;;;8.75;100.00;100842.66;10301132;28;20038;-91
2022/06/08 03:43:19;;;;;;;25.35;15.10;;;;;;;8.78;100.00;100838.56;10299741;28;20039;-90
2022/06/08 03:48:20;;;;;;;32.13;16.58;;;;;;;8.59;100.00;100822.28;10279081;28;20039;-91
2022/06/08 03:53:22;;;;;;;30.60;15.88;;;;;;;8.73;100.00;100833.00;10281297;28;20063;-92
2022/06/08 03:58:23;;;;;;;30.38;16.80;;;;;;;8.85;100.00;100839.28;10285151;28;20039;-91
2022/06/08 04:03:23;;;;;;;26.60;15.80;;;;;;;8.84;100.00;100830.19;10267313;28;20070;-91
2022/06/08 04:08:24;;;;;;;37.92;16.35;;;;;;;9.11;100.00;100839.78;10301335;28;20091;-90
2022/06/08 04:13:25;;;;;;;32.05;18.63;;;;;;;9.24;100.00;100820.22;10300247;28;20055;-88
2022/06/08 04:18:25;;;;;;;34.15;18.67;;;;;;;9.48;100.00;100841.00;10284171;28;20057;-93
2022/06/08 04:23:27;;;;;;;33.55;18.10;;;;;;;9.59;100.00;100824.69;10299838;28;20039;-91
2022/06/08 04:28:28;;;;;;;35.38;20.73;;;;;;;9.77;100.00;100831.88;10307115;28;20107;-88
2022/06/08 04:33:28;;;;;;;37.10;22.02;;;;;;;9.94;100.00;100810.69;10275766;28;20070;-92
2022/06/08 04:38:29;;;;;;;39.78;21.20;;;;;;;10.14;100.00;100839.59;10266537;28;20043;-92
2022/06/08 04:43:29;;;;;;;35.83;20.48;;;;;;;10.15;100.00;100839.34;10236620;28;20256;-93
2022/06/08 04:48:30;;;;;;;42.95;22.80;;;;;;;10.18;100.00;100836.09;10292184;28;20046;-94
2022/06/08 04:53:30;;;;;;;38.88;21.85;;;;;;;10.17;100.00;100823.44;10311919;28;20039;-92
2022/06/08 04:58:31;;;;;;;46.72;24.13;;;;;;;10.35;100.00;100836.06;10292759;28;20054;-87
2022/06/08 05:03:31;;;;;;;44.88;24.90;;;;;;;10.63;100.00;100835.09;10285819;28;20043;-93
2022/06/08 05:08:34;;;;;;;58.15;29.45;;;;;;;11.20;100.00;100830.22;10298518;28;20043;-92
2022/06/08 05:13:36;;;;;;;51.55;27.77;;;;;;;11.88;100.00;100831.41;10311458;28;20042;-92
2022/06/08 05:18:36;;;;;;;49.33;28.63;;;;;;;12.45;100.00;100829.06;10280355;28;20035;-93
2022/06/08 05:23:38;;;;;;;40.42;24.00;;;;;;;12.81;100.00;100840.25;10311616;28;20498;-91
2022/06/08 05:28:39;;;;;;;33.33;21.25;;;;;;;12.93;100.00;100838.09;10277210;28;20043;-93
2022/06/08 05:33:39;;;;;;;32.08;18.88;;;;;;;12.98;100.00;100827.06;10304830;28;20522;-92
2022/06/08 05:38:40;;;;;;;30.67;19.05;;;;;;;12.99;100.00;100817.66;10309905;28;20051;-94
2022/06/08 05:43:40;;;;;;;26.90;18.35;;;;;;;12.89;100.00;100795.53;10294703;28;20042;-91
2022/06/08 05:48:41;;;;;;;31.95;18.70;;;;;;;13.01;100.00;100807.16;10294305;28;20035;-92
2022/06/08 05:53:41;;;;;;;30.92;19.13;;;;;;;13.08;100.00;100807.75;10310481;28;20027;-90
2022/06/08 05:58:42;;;;;;;26.65;17.48;;;;;;;13.17;100.00;100807.19;10277649;28;20051;-93
2022/06/08 06:03:42;;;;;;;28.15;19.17;;;;;;;13.29;100.00;100803.13;10278040;28;20055;-93
2022/06/08 06:08:45;;;;;;;26.05;19.02;;;;;;;13.47;100.00;100795.38;10292320;28;20038;-93
2022/06/08 06:13:46;;;;;;;30.80;19.67;;;;;;;13.74;100.00;100775.72;10290763;28;20051;-94
2022/06/08 06:18:46;;;;;;;32.72;20.40;;;;;;;14.03;100.00;100772.38;10318189;28;20074;-93
2022/06/08 06:23:47;;;;;;;25.27;17.88;;;;;;;14.32;100.00;100783.66;10308464;28;20061;-91
2022/06/08 06:28:47;;;;;;;27.48;17.98;;;;;;;14.58;100.00;100778.88;10310629;28;20057;-91
2022/06/08 06:33:48;;;;;;;26.40;18.45;;;;;;;14.81;100.00;100765.47;10276877;28;20057;-90
2022/06/08 06:38:49;;;;;;;25.48;17.58;;;;;;;14.94;100.00;100753.75;10267868;28;20186;-93
2022/06/08 06:43:49;;;;;;;24.98;17.13;;;;;;;15.19;100.00;100757.47;10296855;28;20070;-93
2022/06/08 06:48:50;;;;;;;29.58;17.42;;;;;;;15.34;100.00;100774.03;10301816;28;20038;-85
2022/06/08 06:53:50;;;;;;;25.15;17.60;;;;;;;15.28;100.00;100753.81;10304376;28;20549;-92
2022/06/08 06:58:50;;;;;;;25.83;17.08;;;;;;;15.61;100.00;100767.16;10294830;28;20047;-92
2022/06/08 07:03:51;;;;;;;24.45;16.67;;;;;;;16.02;100.00;100758.44;10296065;28;20054;-89
2022/06/08 07:08:51;;;;;;;23.70;15.02;;;;;;;16.28;100.00;100737.59;10294474;28;20043;-92
2022/06/08 07:13:52;;;;;;;21.05;13.73;;;;;;;16.65;100.00;100747.13;10296769;28;20030;-92
2022/06/08 07:18:52;;;;;;;17.73;13.25;;;;;;;16.77;100.00;100743.09;10293473;28;20043;-89
2022/06/08 07:23:53;;;;;;;21.02;13.85;;;;;;;17.06;100.00;100718.78;10294571;28;20255;-92
2022/06/08 07:28:55;;;;;;;17.25;11.98;;;;;;;17.37;100.00;100715.50;10278216;28;20066;-92
2022/06/08 07:33:55;;;;;;;16.65;11.48;;;;;;;17.48;100.00;100705.84;10295539;28;20039;-92
2022/06/08 07:38:56;;;;;;;14.52;10.45;;;;;;;17.68;100.00;100703.84;10294708;28;20031;-92
2022/06/08 07:43:57;;;;;;;14.50;10.18;;;;;;;17.78;100.00;100708.38;10284718;28;20036;-93
2022/06/08 07:54:16;;;;;;;13.68;9.10;;;;;;;17.93;100.00;100703.38;10272139;28;20055;-93
2022/06/08 07:59:18;;;;;;;11.07;8.90;;;;;;;18.03;100.00;100699.56;10287478;28;20531;-91
2022/06/08 08:04:18;;;;;;;14.18;9.80;;;;;;;17.92;100.00;100685.03;10295994;28;20113;-90
2022/06/08 08:09:20;;;;;;;16.58;10.70;;;;;;;18.08;100.00;100695.84;10305346;28;20106;-92
2022/06/08 08:14:22;;;;;;;11.55;8.85;;;;;;;18.07;100.00;100686.69;10285752;28;20036;-89
2022/06/08 08:19:23;;;;;;;12.32;9.63;;;;;;;18.40;100.00;100683.78;10284995;28;20139;-92
2022/06/08 08:24:24;;;;;;;12.18;8.98;;;;;;;18.65;100.00;100685.16;10295968;28;20450;-89
2022/06/08 08:29:24;;;;;;;12.77;8.40;;;;;;;19.02;100.00;100672.06;10288444;28;20074;-91
2022/06/08 08:34:25;;;;;;;11.55;6.68;;;;;;;19.36;100.00;100673.44;10282629;28;20042;-91
2022/06/08 08:39:25;;;;;;;10.90;7.03;;;;;;;19.64;100.00;100662.13;10290053;28;20050;-91
2022/06/08 08:44:46;;;;;;;11.32;6.15;;;;;;;19.81;100.00;100653.84;10300415;28;20027;-90
2022/06/08 08:49:56;;;;;;;6.55;4.80;;;;;;;20.39;100.00;100651.06;10283308;28;20032;-92
2022/06/08 08:54:58;;;;;;;6.30;3.33;;;;;;;20.80;100.00;100645.06;10289830;28;20039;-92
2022/06/08 08:59:58;;;;;;;5.32;2.95;;;;;;;21.00;100.00;100626.78;10265046;28;20049;-92
2022/06/08 09:04:59;;;;;;;5.32;2.95;;;;;;;20.66;100.00;100628.41;10299163;28;20031;-93
2022/06/08 09:09:59;;;;;;;3.83;2.30;;;;;;;20.26;100.00;100641.69;10298003;28;20034;-92
2022/06/08 09:15:01;;;;;;;5.38;2.63;;;;;;;20.25;100.00;100618.47;10301190;28;20039;-93
2022/06/08 09:20:28;;;;;;;3.60;2.35;;;;;;;20.96;100.00;100625.78;10282383;28;20437;-93
2022/06/08 09:25:31;;;;;;;2.85;1.95;;;;;;;21.30;100.00;100618.47;10299212;28;20031;-93
2022/06/08 09:30:32;;;;;;;4.43;1.70;;;;;;;21.15;100.00;100623.44;10300940;28;20066;-94
2022/06/08 09:35:39;;;;;;;2.70;1.05;;;;;;;20.89;100.00;100598.28;10283907;28;20161;-93
2022/06/08 09:40:57;;;;;;;3.42;1.70;;;;;;;21.03;100.00;100614.91;10286405;28;20043;-92
2022/06/08 09:46:15;;;;;;;4.07;1.80;;;;;;;21.11;100.00;100591.69;10313005;28;20027;-94
2022/06/08 09:51:28;;;;;;;2.67;1.70;;;;;;;20.50;100.00;100591.69;10304377;28;20074;-93
2022/06/08 09:57:07;;;;;;;3.65;1.65;;;;;;;21.10;100.00;100597.59;10298568;28;20085;-91
2022/06/08 10:02:24;;;;;;;1.90;1.67;;;;;;;21.20;100.00;100591.66;10282310;28;20082;-92
2022/06/08 10:07:37;;;;;;;4.07;1.92;;;;;;;20.90;100.00;100590.75;10274026;28;20043;-90
2022/06/08 10:12:59;;;;;;;4.97;2.20;;;;;;;20.65;100.00;100598.81;10272697;28;20068;-91
2022/06/08 10:18:21;;;;;;;3.30;1.40;;;;;;;20.92;100.00;100600.44;10298090;28;20112;-91
2022/06/08 10:23:21;;;;;;;4.85;1.63;;;;;;;21.32;100.00;100582.56;10295283;28;20070;-95
2022/06/08 10:28:41;;;;;;;6.13;2.50;;;;;;;21.71;100.00;100580.63;10302110;28;20062;-92
2022/06/08 10:33:59;;;;;;;5.47;2.10;;;;;;;22.66;100.00;100573.59;10282245;28;20062;-93
2022/06/08 10:39:00;;;;;;;4.32;2.85;;;;;;;22.35;100.00;100558.00;10296620;28;20506;-91
2022/06/08 10:44:02;;;;;;;7.10;2.85;;;;;;;21.79;100.00;100551.75;10298364;28;20038;-92
2022/06/08 10:49:02;;;;;;;5.55;3.00;;;;;;;21.32;100.00;100554.56;10280181;28;20046;-90
2022/06/08 10:59:28;;;;;;;5.05;2.95;;;;;;;21.34;100.00;100555.06;10273334;28;20529;-78
2022/06/08 11:04:35;;;;;;;3.78;2.30;;;;;;;21.51;100.00;100551.38;10263055;28;20061;-83
2022/06/08 11:09:35;;;;;;;2.90;2.00;;;;;;;22.40;100.00;100542.13;10301090;28;20204;-92
2022/06/08 11:14:47;;;;;;;4.50;2.27;;;;;;;23.10;99.27;100537.50;10289844;28;20078;-84
2022/06/08 11:19:48;;;;;;;6.72;2.83;;;;;;;23.34;96.46;100507.84;10275762;28;20286;-84
2022/06/08 11:24:50;;;;;;;5.25;2.88;;;;;;;23.37;95.55;100529.59;10241583;28;20055;-86
2022/06/08 11:29:51;;;;;;;2.97;1.88;;;;;;;22.96;94.62;100520.97;10277512;28;20399;-85
2022/06/08 11:35:01;;;;;;;4.40;1.77;;;;;;;23.09;94.05;100518.19;10298019;28;20046;-86
2022/06/08 11:40:15;;;;;;;4.55;1.05;;;;;;;23.08;89.14;100506.16;10300712;28;20043;-87
2022/06/08 11:45:23;;;;;;;1.98;1.05;;;;;;;23.05;89.02;100500.41;10301376;28;20414;-88
2022/06/08 11:50:39;;;;;;;3.88;1.35;;;;;;;23.23;89.17;100490.59;10298998;28;20035;-86
2022/06/08 11:56:01;;;;;;;3.30;1.20;;;;;;;23.28;92.76;100498.81;10301143;28;20102;-88
2022/06/08 12:01:09;;;;;;;1.75;1.20;;;;;;;23.42;87.31;100481.63;10302824;28;20069;-88
2022/06/08 12:06:13;;;;;;;3.80;1.35;;;;;;;23.56;85.42;100470.84;10300460;28;20047;-87
2022/06/08 12:11:14;;;;;;;3.63;2.08;;;;;;;23.29;83.02;100460.31;10302152;28;20043;-87
2022/06/08 12:16:20;;;;;;;3.63;1.90;;;;;;;23.96;87.58;100466.47;10284360;28;20553;-87
2022/06/08 12:21:26;;;;;;;3.72;2.38;;;;;;;24.37;85.14;100454.03;10301465;28;20041;-87
2022/06/08 12:26:35;;;;;;;7.32;2.38;;;;;;;25.51;81.61;100432.88;10299984;28;20565;-88
2022/06/08 12:31:35;;;;;;;3.65;2.38;;;;;;;26.31;79.77;100413.66;10299699;28;20058;-85
2022/06/08 12:36:35;;;;;;;5.55;2.35;;;;;;;26.57;77.36;100423.50;10301373;28;20038;-87
2022/06/08 12:41:49;;;;;;;4.32;2.20;;;;;;;26.01;75.65;100405.00;10301471;28;20038;-85
2022/06/08 12:47:00;;;;;;;3.15;1.60;;;;;;;24.98;76.16;100407.00;10297912;28;20054;-85
2022/06/08 12:52:00;;;;;;;4.20;1.60;;;;;;;24.06;80.15;100425.78;10300276;28;20039;-85
2022/06/08 12:57:14;;;;;;;2.13;1.83;;;;;;;23.01;80.86;100427.31;10300796;28;20038;-85
2022/06/08 13:02:19;;;;;;;4.45;1.15;;;;;;;21.33;95.78;100511.41;10298181;28;20035;-85
2022/06/08 13:07:22;;;;;;;15.75;3.38;;;;;;;18.08;100.00;100542.63;10297939;28;20066;-85
2022/06/08 13:12:25;;;;;;;11.95;3.55;;;;;;;16.34;100.00;100524.44;10281761;28;20130;-93
2022/06/08 13:17:26;;;;;;;10.90;2.63;;;;;;;15.70;100.00;100515.59;10267210;28;20034;-89
2022/06/08 13:22:27;;;;;;;10.93;3.30;;;;;;;15.43;100.00;100530.91;10297537;28;20106;-88
2022/06/08 13:27:27;;;;;;;8.75;3.17;;;;;;;14.99;100.00;100493.16;10297223;28;20039;-87
2022/06/08 13:32:28;;;;;;;11.75;3.78;;;;;;;15.34;100.00;100535.47;10296567;28;20043;-88
2022/06/08 13:37:34;;;;;;;8.35;3.22;;;;;;;14.93;100.00;100448.00;10297428;28;20043;-88
2022/06/08 13:42:34;;;;;;;7.17;3.70;;;;;;;15.65;100.00;100529.56;10281614;28;20071;-88
2022/06/08 13:47:35;;;;;;;12.75;4.07;;;;;;;15.58;100.00;100520.75;10298325;28;20323;-89
2022/06/08 13:52:36;;;;;;;8.48;3.70;;;;;;;15.66;100.00;100536.75;10280677;28;20035;-90
2022/06/08 13:57:36;;;;;;;10.32;4.10;;;;;;;15.65;100.00;100515.69;10296727;28;20038;-90
2022/06/08 14:03:04;;;;;;;9.50;4.65;;;;;;;15.86;100.00;100519.88;10280750;28;20601;-89
2022/06/08 14:13:26;;;;;;;12.77;7.32;;;;;;;16.32;100.00;100504.47;10269643;28;20046;-88
2022/06/08 14:18:35;;;;;;;14.82;8.13;;;;;;;16.48;100.00;100502.28;10274918;28;20038;-89
2022/06/08 14:23:37;;;;;;;17.45;10.45;;;;;;;16.25;100.00;100454.88;10268635;28;20384;-89
2022/06/08 14:28:37;;;;;;;14.88;8.70;;;;;;;16.20;100.00;100474.38;10298317;28;20130;-90
2022/06/08 14:33:37;;;;;;;11.65;6.45;;;;;;;16.28;100.00;100520.09;10280947;28;20035;-89
2022/06/08 14:38:38;;;;;;;22.13;11.35;;;;;;;16.10;100.00;100521.75;10283357;28;20059;-89
2022/06/08 14:43:39;;;;;;;79.85;57.63;;;;;;;15.88;100.00;100517.63;10270883;28;20050;-88
2022/06/08 14:48:45;;;;;;;73.22;51.70;;;;;;;15.91;100.00;100533.66;10257960;28;20035;-90
2022/06/08 14:53:45;;;;;;;35.55;23.55;;;;;;;15.97;100.00;100553.03;10273318;28;20072;-89
2022/06/08 14:58:46;;;;;;;20.30;15.13;;;;;;;16.07;100.00;100552.91;10273759;28;20057;-90
2022/06/08 15:03:47;;;;;;;14.88;9.85;;;;;;;16.13;100.00;100562.81;10260174;28;20058;-90
2022/06/08 15:08:47;;;;;;;16.52;11.35;;;;;;;16.11;100.00;100551.19;10275327;28;20043;-89
2022/06/08 15:13:48;;;;;;;19.80;12.40;;;;;;;16.11;100.00;100543.66;10243108;28;20082;-91
2022/06/08 15:18:49;;;;;;;19.02;13.57;;;;;;;16.33;100.00;100556.97;10276595;28;20050;-92
2022/06/08 15:23:49;;;;;;;19.60;14.07;;;;;;;16.60;100.00;100555.44;10261720;28;20079;-93
2022/06/08 15:28:50;;;;;;;17.23;12.13;;;;;;;16.85;100.00;100558.97;10285475;28;20046;-92
2022/06/08 15:33:50;;;;;;;18.38;10.18;;;;;;;16.91;100.00;100558.56;10285764;28;20039;-91
2022/06/08 15:38:52;;;;;;;22.58;9.55;;;;;;;16.82;100.00;100551.22;10258918;28;20066;-89
2022/06/08 15:43:53;;;;;;;17.58;8.32;;;;;;;16.73;100.00;100549.09;10277382;28;20042;-92
2022/06/08 15:48:55;;;;;;;18.10;10.07;;;;;;;16.69;100.00;100553.63;10272992;28;20039;-84
2022/06/08 15:54:06;;;;;;;10.18;7.55;;;;;;;16.58;100.00;100546.59;10253056;28;20107;-93
2022/06/08 15:59:23;;;;;;;12.40;8.75;;;;;;;16.57;100.00;100516.31;10267305;28;20057;-94
2022/06/08 16:04:24;;;;;;;16.50;9.02;;;;;;;16.81;100.00;100538.47;10276197;28;20099;-95
2022/06/08 16:09:24;;;;;;;10.60;7.93;;;;;;;16.80;100.00;100525.66;10267006;28;20590;-96
2022/06/08 16:14:24;;;;;;;13.38;8.50;;;;;;;16.89;100.00;100534.97;10312843;28;20035;-95
2022/06/08 16:19:26;;;;;;;17.20;9.52;;;;;;;16.95;100.00;100542.09;10311453;28;20042;-95
2022/06/08 16:24:26;;;;;;;18.15;9.95;;;;;;;16.86;100.00;100530.03;10292085;28;20091;-95
2022/06/08 16:29:27;;;;;;;12.85;9.23;;;;;;;16.75;100.00;100527.38;10279779;28;20063;-93
2022/06/08 16:34:28;;;;;;;18.30;9.52;;;;;;;16.57;100.00;100511.56;10283484;28;20043;-94
2022/06/08 16:39:28;;;;;;;14.57;9.07;;;;;;;16.56;100.00;100532.16;10267036;28;20043;-95
2022/06/08 16:44:29;;;;;;;14.45;8.93;;;;;;;16.52;100.00;100534.72;10275752;28;20039;-94
2022/06/08 16:49:29;;;;;;;16.38;8.65;;;;;;;16.48;100.00;100528.13;10281947;28;20039;-89
2022/06/08 16:54:30;;;;;;;11.77;6.95;;;;;;;16.31;100.00;100514.78;10279495;28;20047;-92
2022/06/08 16:59:36;;;;;;;10.82;6.45;;;;;;;16.34;100.00;100535.56;10272960;28;20045;-88
2022/06/08 17:04:37;;;;;;;;;;;;;;;16.28;100.00;100532.03;10283138;28;20041;-90
2022/06/08 17:09:39;;;;;;;8.75;5.85;;;;;;;16.24;100.00;100530.16;10286354;28;20549;-90
2022/06/08 17:14:41;;;;;;;10.48;6.93;;;;;;;16.19;100.00;100522.75;10257581;28;20095;-94
2022/06/08 17:19:42;;;;;;;14.00;8.75;;;;;;;16.17;100.00;100521.41;10252690;28;20040;-92
2022/06/08 17:24:42;;;;;;;15.05;8.48;;;;;;;16.22;100.00;100527.69;10264388;28;20907;-91
2022/06/08 17:29:43;;;;;;;15.07;9.18;;;;;;;15.24;100.00;100374.75;10264433;28;20070;-93
2022/06/08 17:34:43;;;;;;;15.73;9.40;;;;;;;16.05;100.00;100505.16;10283067;28;20068;-93
2022/06/08 17:39:44;;;;;;;14.05;8.02;;;;;;;15.98;100.00;100499.16;10271474;28;20050;-92
2022/06/08 17:44:44;;;;;;;15.93;9.02;;;;;;;16.05;100.00;100510.72;10273803;28;20046;-93
2022/06/08 17:49:45;;;;;;;11.32;8.25;;;;;;;16.07;100.00;100514.84;10291442;28;20043;-93
2022/06/08 17:54:45;;;;;;;13.82;7.60;;;;;;;15.97;100.00;100508.63;10305081;28;20070;-93
2022/06/08 17:59:46;;;;;;;14.25;8.35;;;;;;;16.04;100.00;100517.38;10282464;28;20563;-94
2022/06/08 18:04:47;;;;;;;12.38;8.18;;;;;;;15.77;100.00;100487.50;10249486;28;20058;-86
2022/06/08 18:09:47;;;;;;;10.18;7.18;;;;;;;15.71;100.00;100473.69;10288303;28;20039;-93
2022/06/08 18:14:51;;;;;;;8.00;4.47;;;;;;;15.68;100.00;100502.03;10270049;28;20067;-93
2022/06/08 18:19:51;;;;;;;4.68;3.50;;;;;;;15.57;100.00;100499.69;10260327;28;20035;-94
2022/06/08 18:24:52;;;;;;;6.38;3.58;;;;;;;15.50;100.00;100511.97;10283168;28;20420;-93
2022/06/08 18:29:55;;;;;;;5.20;3.42;;;;;;;15.45;100.00;100503.72;10276626;28;20043;-93
2022/06/08 18:34:55;;;;;;;7.07;4.43;;;;;;;15.26;100.00;100477.88;10285653;28;20042;-94
2022/06/08 18:39:57;;;;;;;8.60;4.68;;;;;;;15.38;100.00;100511.56;10264098;28;20331;-94
2022/06/08 18:44:59;;;;;;;12.60;6.30;;;;;;;15.04;100.00;100462.59;10274096;28;20050;-95
2022/06/08 18:49:59;;;;;;;14.10;7.18;;;;;;;15.32;100.00;100504.44;10257093;28;20034;-91
2022/06/08 18:55:00;;;;;;;13.55;7.70;;;;;;;15.31;100.00;100517.47;10264257;28;20062;-94
2022/06/08 19:00:00;;;;;;;19.00;8.32;;;;;;;15.23;100.00;100508.97;10283709;28;20050;-91
2022/06/08 19:05:01;;;;;;;12.57;8.30;;;;;;;15.23;100.00;100509.78;10275123;28;20450;-94
2022/06/08 19:10:01;;;;;;;15.38;8.23;;;;;;;15.20;100.00;100518.69;10285786;28;20078;-95
2022/06/08 19:15:02;;;;;;;11.98;8.07;;;;;;;15.13;100.00;100512.66;10296071;28;20073;-92
2022/06/08 19:25:22;;;;;;;15.27;8.68;;;;;;;15.09;100.00;100518.00;10268518;28;20075;-91
2022/06/08 19:30:24;;;;;;;13.98;8.60;;;;;;;15.05;100.00;100521.66;10307377;28;20082;-93
2022/06/08 19:35:24;;;;;;;20.63;8.88;;;;;;;14.91;100.00;100507.66;10279792;28;20054;-94
2022/06/08 19:40:25;;;;;;;13.55;8.88;;;;;;;14.94;100.00;100509.81;10271507;28;20046;-92
2022/06/08 19:45:25;;;;;;;19.23;9.10;;;;;;;14.85;100.00;100497.72;10281036;28;20042;-91
2022/06/08 19:50:28;;;;;;;18.98;9.07;;;;;;;14.79;100.00;100502.47;10266817;28;20053;-94
2022/06/08 19:55:28;;;;;;;16.27;9.50;;;;;;;14.69;100.00;100508.94;10262635;28;20030;-94
2022/06/08 20:00:29;;;;;;;15.52;9.18;;;;;;;14.51;100.00;100509.63;10270584;28;20046;-93
2022/06/08 20:05:30;;;;;;;16.00;9.38;;;;;;;14.55;100.00;100535.63;10290601;28;20132;-96
2022/06/08 20:10:30;;;;;;;12.82;7.63;;;;;;;14.33;100.00;100500.09;10268729;28;20046;-96
2022/06/08 20:15:31;;;;;;;11.25;7.55;;;;;;;14.45;100.00;100524.63;10271031;28;20039;-95
2022/06/08 20:20:32;;;;;;;8.60;6.57;;;;;;;14.45;100.00;100533.78;10268952;28;20031;-89
2022/06/08 20:25:36;;;;;;;9.30;6.18;;;;;;;14.57;100.00;100552.00;10288196;28;20402;-94
2022/06/08 20:30:37;;;;;;;10.85;7.65;;;;;;;14.54;100.00;100542.28;10272640;28;20038;-94
2022/06/08 20:35:38;;;;;;;12.23;7.88;;;;;;;14.54;100.00;100539.53;10293416;28;20098;-96
2022/06/08 20:40:39;;;;;;;14.10;8.35;;;;;;;14.56;100.00;100547.59;10278964;28;20046;-96
2022/06/08 20:45:40;;;;;;;14.70;8.35;;;;;;;14.46;100.00;100538.19;10268738;28;20055;-94
2022/06/08 20:50:42;;;;;;;13.20;8.93;;;;;;;14.52;100.00;100547.28;10292254;28;20070;-95
2022/06/08 20:55:42;;;;;;;13.85;9.30;;;;;;;14.60;100.00;100554.19;10272450;28;20047;-94
2022/06/08 21:00:43;;;;;;;15.38;9.88;;;;;;;14.58;100.00;100554.47;10277641;28;20035;-95
2022/06/08 21:05:44;;;;;;;15.68;10.35;;;;;;;14.54;100.00;100550.59;10273751;28;20066;-95
2022/06/08 21:10:44;;;;;;;17.38;11.27;;;;;;;14.52;100.00;100550.88;10286699;28;20042;-95
2022/06/08 21:15:45;;;;;;;18.15;11.20;;;;;;;14.43;100.00;100543.50;10279687;28;20035;-92
2022/06/08 21:20:45;;;;;;;17.77;12.45;;;;;;;14.55;100.00;100560.56;10297694;28;20034;-80
2022/06/08 21:25:46;;;;;;;20.98;12.95;;;;;;;14.45;100.00;100546.78;10267626;28;20051;-96
2022/06/08 21:30:47;;;;;;;20.85;12.75;;;;;;;14.47;100.00;100550.09;10285959;28;20050;-96
2022/06/08 21:35:48;;;;;;;23.67;13.93;;;;;;;14.57;100.00;100574.16;10269828;28;20043;-95
2022/06/08 21:40:48;;;;;;;16.58;12.70;;;;;;;14.52;100.00;100563.91;10294565;28;20705;-96
2022/06/08 21:45:49;;;;;;;23.92;14.13;;;;;;;14.46;100.00;100554.81;10292395;28;20034;-96
2022/06/08 21:50:50;;;;;;;14.75;10.80;;;;;;;14.40;100.00;100549.59;10252736;28;20043;-95
2022/06/08 21:55:52;;;;;;;15.75;10.52;;;;;;;14.00;100.00;100496.16;10291905;28;20063;-94
2022/06/08 22:00:59;;;;;;;19.73;11.38;;;;;;;14.20;100.00;100545.88;10237616;28;20042;-95
2022/06/08 22:06:00;;;;;;;20.02;11.77;;;;;;;14.36;100.00;100565.13;10273901;28;20113;-96
2022/06/08 22:11:03;;;;;;;15.75;10.30;;;;;;;14.38;100.00;100565.69;10302331;28;20112;-95
2022/06/08 22:16:04;;;;;;;20.75;10.82;;;;;;;14.27;100.00;100546.38;10287797;28;20086;-96
2022/06/08 22:21:06;;;;;;;19.92;12.18;;;;;;;14.17;100.00;100529.81;10287062;28;20039;-96
2022/06/08 22:26:07;;;;;;;22.90;12.93;;;;;;;14.33;100.00;100545.22;10252195;28;20034;-95
2022/06/08 22:31:08;;;;;;;18.38;12.43;;;;;;;14.37;100.00;100555.72;10286453;28;20087;-94
2022/06/08 22:36:08;;;;;;;21.45;12.75;;;;;;;14.38;100.00;100557.38;10292178;28;20054;-92
2022/06/08 22:41:09;;;;;;;23.05;13.05;;;;;;;14.27;100.00;100535.28;10259510;28;20062;-96
2022/06/08 22:46:09;;;;;;;21.30;13.05;;;;;;;14.35;100.00;100558.78;10310551;28;20034;-96
2022/06/08 22:51:10;;;;;;;21.27;13.13;;;;;;;14.22;100.00;100543.63;10295335;28;20031;-95
2022/06/08 22:56:11;;;;;;;21.73;12.43;;;;;;;14.32;100.00;100565.72;10316865;28;20039;-95
2022/06/08 23:01:11;;;;;;;20.00;13.38;;;;;;;14.12;100.00;100532.63;10265803;28;20039;-95
2022/06/08 23:06:12;;;;;;;21.65;13.48;;;;;;;14.26;100.00;100566.03;10269587;28;20589;-96
2022/06/08 23:21:51;;;;;;;20.50;12.77;;;;;;;14.21;100.00;100580.72;10291168;28;20039;-96
2022/06/08 23:26:52;;;;;;;21.35;12.60;;;;;;;14.21;100.00;100579.91;10262731;28;20050;-96